createdAt,value
2017-06-13T00:00:42.550Z,44.00
2017-06-13T00:03:13.744Z,44.20
2017-06-13T00:05:42.007Z,44.30
2017-06-13T00:08:10.293Z,44.50
2017-06-13T00:10:38.549Z,44.50
2017-06-13T00:13:06.790Z,44.40
2017-06-13T00:15:35.028Z,44.70
2017-06-13T00:18:03.286Z,45.00
2017-06-13T00:20:31.529Z,45.00
2017-06-13T00:23:00.558Z,45.10
2017-06-13T00:25:28.845Z,45.10
2017-06-13T00:27:57.151Z,45.10
2017-06-13T00:30:25.503Z,45.40
2017-06-13T00:32:53.738Z,45.20
2017-06-13T00:35:22.042Z,45.40
2017-06-13T00:37:50.374Z,45.50
2017-06-13T00:40:18.632Z,45.50
2017-06-13T00:42:46.974Z,45.10
2017-06-13T00:45:15.212Z,45.70
2017-06-13T00:47:44.240Z,46.00
2017-06-13T00:50:12.562Z,45.90
2017-06-13T00:52:40.797Z,46.00
2017-06-13T00:55:09.165Z,45.80
2017-06-13T00:57:37.437Z,46.10
2017-06-13T01:00:05.683Z,46.20
2017-06-13T01:02:34.783Z,46.40
2017-06-13T01:05:03.240Z,46.40
2017-06-13T01:07:31.470Z,46.60
2017-06-13T01:09:59.717Z,46.30
2017-06-13T01:12:28.017Z,46.30
2017-06-13T01:14:56.265Z,46.50
2017-06-13T01:17:24.615Z,46.60
2017-06-13T01:19:52.949Z,46.70
2017-06-13T01:22:21.187Z,47.10
2017-06-13T01:24:50.309Z,46.70
2017-06-13T01:27:18.643Z,46.60
2017-06-13T01:29:47.731Z,47.00
2017-06-13T01:32:15.976Z,47.00
2017-06-13T01:34:44.220Z,46.70
2017-06-13T01:37:12.484Z,47.30
2017-06-13T01:39:40.843Z,47.40
2017-06-13T01:42:09.161Z,47.30
2017-06-13T01:44:37.438Z,47.50
2017-06-13T01:47:05.680Z,47.70
2017-06-13T01:49:33.949Z,47.70
2017-06-13T01:52:02.192Z,47.60
2017-06-13T01:54:30.445Z,47.50
2017-06-13T01:56:58.710Z,47.70
2017-06-13T01:59:26.993Z,48.30
2017-06-13T02:01:55.372Z,48.00
2017-06-13T02:04:23.625Z,48.00
2017-06-13T02:06:51.929Z,48.30
2017-06-13T02:09:20.193Z,48.60
2017-06-13T02:11:48.454Z,48.60
2017-06-13T02:14:16.729Z,48.60
2017-06-13T02:16:44.989Z,48.50
2017-06-13T02:19:14.009Z,48.60
2017-06-13T02:21:42.282Z,48.60
2017-06-13T02:24:10.621Z,48.70
2017-06-13T02:26:39.696Z,49.30
2017-06-13T02:29:08.051Z,49.30
2017-06-13T02:31:36.311Z,49.60
2017-06-13T02:34:04.574Z,49.50
2017-06-13T02:36:32.814Z,49.40
2017-06-13T02:39:01.849Z,50.50
2017-06-13T02:41:30.084Z,49.90
2017-06-13T02:43:59.187Z,50.20
2017-06-13T02:46:27.413Z,50.20
2017-06-13T02:48:55.726Z,50.20
2017-06-13T02:51:23.961Z,50.40
2017-06-13T02:53:52.275Z,50.50
2017-06-13T02:56:20.488Z,50.60
2017-06-13T02:58:48.787Z,50.70
2017-06-13T03:01:17.029Z,50.60
2017-06-13T03:03:45.315Z,50.60
2017-06-13T03:06:13.559Z,50.60
2017-06-13T03:08:42.587Z,50.30
2017-06-13T03:11:10.872Z,50.30
2017-06-13T03:13:39.149Z,50.40
2017-06-13T03:16:07.417Z,50.60
2017-06-13T03:18:35.761Z,50.60
2017-06-13T03:21:03.973Z,50.80
2017-06-13T03:23:32.243Z,50.60
2017-06-13T03:26:00.547Z,50.90
2017-06-13T03:28:28.806Z,50.80
2017-06-13T03:30:57.096Z,50.70
2017-06-13T03:33:25.329Z,50.80
2017-06-13T03:35:53.644Z,50.90
2017-06-13T03:38:21.957Z,51.00
2017-06-13T03:40:50.347Z,51.20
2017-06-13T03:43:18.570Z,51.40
2017-06-13T03:45:46.840Z,51.70
2017-06-13T03:48:15.095Z,51.60
2017-06-13T03:50:43.454Z,51.60
2017-06-13T03:53:11.703Z,51.50
2017-06-13T03:55:39.952Z,51.80
2017-06-13T03:58:08.203Z,51.70
2017-06-13T04:00:36.545Z,51.70
2017-06-13T04:03:05.589Z,51.40
2017-06-13T04:05:33.961Z,51.40
2017-06-13T04:08:02.233Z,51.50
2017-06-13T04:10:30.469Z,51.40
2017-06-13T04:12:59.600Z,51.50
2017-06-13T04:15:28.030Z,51.50
2017-06-13T04:17:56.285Z,52.20
2017-06-13T04:20:24.629Z,52.60
2017-06-13T04:22:53.006Z,52.80
2017-06-13T04:25:21.457Z,52.70
2017-06-13T04:27:49.672Z,52.50
2017-06-13T04:30:18.065Z,52.80
2017-06-13T04:32:46.363Z,52.90
2017-06-13T04:35:14.612Z,52.90
2017-06-13T04:37:43.000Z,53.00
2017-06-13T04:40:11.237Z,52.70
2017-06-13T04:42:39.525Z,52.90
2017-06-13T04:45:07.765Z,52.60
2017-06-13T04:47:37.299Z,52.10
2017-06-13T04:50:05.552Z,52.00
2017-06-13T04:52:34.649Z,52.10
2017-06-13T04:55:02.920Z,52.10
2017-06-13T04:57:31.962Z,52.40
2017-06-13T05:00:00.186Z,52.30
2017-06-13T05:02:29.201Z,52.00
2017-06-13T05:04:57.633Z,52.00
2017-06-13T05:07:25.982Z,50.80
2017-06-13T05:09:54.344Z,50.40
2017-06-13T05:12:22.617Z,49.30
2017-06-13T05:14:50.974Z,48.70
2017-06-13T05:17:19.419Z,47.90
2017-06-13T05:19:47.628Z,46.60
2017-06-13T05:22:15.929Z,46.20
2017-06-13T05:24:44.173Z,45.20
2017-06-13T05:27:12.513Z,46.30
2017-06-13T05:29:40.776Z,46.20
2017-06-13T05:32:09.050Z,45.20
2017-06-13T05:34:37.305Z,45.20
2017-06-13T05:37:05.557Z,44.90
2017-06-13T05:39:33.802Z,44.00
2017-06-13T05:42:02.083Z,44.20
2017-06-13T05:44:31.088Z,45.10
2017-06-13T05:47:00.081Z,44.20
2017-06-13T05:49:29.093Z,44.20
2017-06-13T05:51:57.383Z,44.20
2017-06-13T05:54:25.671Z,44.40
2017-06-13T05:56:53.898Z,44.00
2017-06-13T05:59:22.907Z,44.50
2017-06-13T06:01:51.913Z,43.90
2017-06-13T06:04:20.160Z,43.90
2017-06-13T06:06:49.305Z,43.00
2017-06-13T06:09:18.418Z,42.70
2017-06-13T06:11:46.657Z,42.30
2017-06-13T06:14:14.915Z,41.40
2017-06-13T06:16:43.157Z,40.80
2017-06-13T06:19:11.492Z,39.90
2017-06-13T06:21:39.893Z,36.80
2017-06-13T06:24:08.137Z,36.50
2017-06-13T06:26:36.368Z,35.40
2017-06-13T06:29:05.397Z,32.50
2017-06-13T06:31:33.639Z,32.50
2017-06-13T06:34:01.889Z,32.10
2017-06-13T06:36:30.118Z,31.80
2017-06-13T06:38:58.377Z,31.00
2017-06-13T06:41:27.425Z,29.90
2017-06-13T06:43:55.786Z,29.80
2017-06-13T06:46:24.023Z,29.20
2017-06-13T06:48:53.108Z,31.00
2017-06-13T06:51:22.178Z,32.20
2017-06-13T06:53:50.475Z,32.10
2017-06-13T06:56:18.682Z,33.00
2017-06-13T06:58:47.025Z,33.80
2017-06-13T07:01:15.241Z,34.70
2017-06-13T07:03:43.543Z,35.30
2017-06-13T07:06:11.784Z,34.30
2017-06-13T07:08:40.035Z,35.50
2017-06-13T07:11:09.125Z,36.70
2017-06-13T07:13:37.445Z,36.70
2017-06-13T07:16:05.749Z,35.40
2017-06-13T07:18:34.015Z,35.30
2017-06-13T07:21:02.326Z,36.10
2017-06-13T07:23:30.648Z,36.40
2017-06-13T07:25:58.880Z,34.40
2017-06-13T07:28:27.898Z,33.70
2017-06-13T07:30:56.196Z,33.70
2017-06-13T07:33:24.465Z,32.70
2017-06-13T07:35:52.748Z,32.70
2017-06-13T07:38:21.082Z,32.60
2017-06-13T07:40:50.213Z,31.00
2017-06-13T07:43:18.537Z,31.00
2017-06-13T07:45:46.784Z,30.70
2017-06-13T07:48:15.054Z,30.40
2017-06-13T07:50:43.456Z,30.30
2017-06-13T07:53:12.241Z,31.20
2017-06-13T07:55:40.496Z,32.20
2017-06-13T07:58:08.760Z,32.60
2017-06-13T08:00:37.070Z,33.70
2017-06-13T08:03:05.413Z,33.80
2017-06-13T08:05:33.749Z,33.60
2017-06-13T08:08:02.069Z,34.10
2017-06-13T08:10:30.381Z,32.80
2017-06-13T08:12:58.614Z,33.00
2017-06-13T08:15:26.865Z,32.00
2017-06-13T08:17:55.101Z,32.00
2017-06-13T08:20:23.488Z,29.50
2017-06-13T08:22:51.711Z,28.70
2017-06-13T08:25:19.966Z,28.40
2017-06-13T08:27:48.279Z,29.20
2017-06-13T08:30:16.579Z,29.70
2017-06-13T08:32:44.814Z,28.90
2017-06-13T08:35:13.109Z,29.60
2017-06-13T08:37:41.384Z,29.80
2017-06-13T08:40:09.703Z,30.20
2017-06-13T08:42:37.948Z,30.50
2017-06-13T08:45:06.302Z,31.00
2017-06-13T08:47:34.551Z,30.70
2017-06-13T08:50:02.805Z,31.20
2017-06-13T08:52:31.809Z,32.20
2017-06-13T08:55:00.938Z,31.50
2017-06-13T08:57:29.170Z,31.50
2017-06-13T08:59:58.995Z,30.30
2017-06-13T09:02:27.329Z,29.80
2017-06-13T09:04:55.681Z,29.40
2017-06-13T09:07:24.007Z,28.80
2017-06-13T09:09:52.254Z,28.90
2017-06-13T09:12:20.605Z,29.90
2017-06-13T09:14:48.853Z,30.00
2017-06-13T09:17:17.977Z,30.60
2017-06-13T09:19:46.217Z,30.60
2017-06-13T09:22:14.456Z,30.50
2017-06-13T09:24:42.694Z,30.50
2017-06-13T09:27:10.949Z,30.50
2017-06-13T09:29:39.178Z,30.60
2017-06-13T09:32:07.428Z,29.20
2017-06-13T09:34:35.669Z,28.20
2017-06-13T09:37:04.801Z,28.20
2017-06-13T09:39:33.036Z,28.20
2017-06-13T09:42:02.061Z,28.20
2017-06-13T09:44:30.296Z,28.20
2017-06-13T09:46:59.437Z,29.60
2017-06-13T09:49:28.491Z,29.60
2017-06-13T09:51:57.761Z,30.10
2017-06-13T09:54:27.480Z,31.00
2017-06-13T09:56:57.087Z,30.80
2017-06-13T09:59:25.879Z,30.80
2017-06-13T10:01:54.764Z,31.10
2017-06-13T10:04:24.474Z,31.40
2017-06-13T10:06:53.218Z,32.00
2017-06-13T10:09:22.048Z,32.90
2017-06-13T10:11:51.249Z,32.40
2017-06-13T10:14:19.748Z,32.10
2017-06-13T10:16:48.926Z,32.90
2017-06-13T10:19:17.291Z,32.80
2017-06-13T10:21:45.633Z,32.40
2017-06-13T10:24:13.888Z,32.90
2017-06-13T10:26:42.142Z,33.20
2017-06-13T10:29:11.141Z,32.70
2017-06-13T10:31:40.216Z,30.60
2017-06-13T10:34:08.455Z,30.50
2017-06-13T10:36:36.743Z,28.20
2017-06-13T10:39:04.981Z,26.10
2017-06-13T10:41:33.236Z,24.70
2017-06-13T10:44:02.240Z,22.60
2017-06-13T10:46:30.891Z,22.60
2017-06-13T10:48:59.133Z,21.80
2017-06-13T10:51:27.390Z,21.50
2017-06-13T10:53:55.685Z,23.20
2017-06-13T10:56:23.960Z,24.10
2017-06-13T10:58:52.277Z,25.10
2017-06-13T11:01:21.290Z,27.00
2017-06-13T11:03:50.551Z,26.40
2017-06-13T11:06:18.788Z,26.40
2017-06-13T11:08:47.046Z,26.60
2017-06-13T11:11:15.297Z,27.40
2017-06-13T11:13:44.378Z,28.30
2017-06-13T11:16:12.616Z,28.20
2017-06-13T11:18:40.928Z,28.40
2017-06-13T11:21:09.247Z,27.70
2017-06-13T11:23:37.516Z,27.50
2017-06-13T11:26:05.750Z,27.40
2017-06-13T11:28:34.082Z,28.20
2017-06-13T11:31:02.313Z,27.80
2017-06-13T11:33:31.473Z,28.90
2017-06-13T11:35:59.732Z,28.80
2017-06-13T11:38:28.057Z,29.00
2017-06-13T11:40:56.338Z,29.40
2017-06-13T11:43:24.721Z,29.30
2017-06-13T11:45:53.089Z,29.30
2017-06-13T11:48:21.428Z,29.60
2017-06-13T11:50:49.660Z,30.00
2017-06-13T11:53:18.678Z,27.60
2017-06-13T11:55:47.030Z,27.50
2017-06-13T11:58:15.272Z,28.50
2017-06-13T12:00:43.634Z,28.10
2017-06-13T12:03:11.883Z,28.50
2017-06-13T12:05:40.121Z,27.80
2017-06-13T12:08:08.448Z,27.40
2017-06-13T12:10:36.745Z,27.50
2017-06-13T12:13:04.993Z,27.80
2017-06-13T12:15:33.276Z,28.00
2017-06-13T12:18:01.614Z,28.30
2017-06-13T12:20:30.660Z,28.20
2017-06-13T12:22:58.937Z,28.20
2017-06-13T12:25:27.235Z,28.10
2017-06-13T12:27:56.794Z,28.70
2017-06-13T12:30:25.245Z,28.50
2017-06-13T12:32:54.337Z,28.20
2017-06-13T12:35:23.010Z,28.00
2017-06-13T12:37:52.676Z,28.00
2017-06-13T12:40:21.881Z,27.70
2017-06-13T12:42:51.312Z,29.30
2017-06-13T12:45:19.751Z,29.30
2017-06-13T12:47:48.052Z,28.90
2017-06-13T12:50:16.392Z,29.10
2017-06-13T12:52:44.638Z,28.80
2017-06-13T12:55:13.646Z,29.70
2017-06-13T12:57:41.910Z,29.90
2017-06-13T13:00:10.924Z,29.70
2017-06-13T13:02:39.218Z,29.70
2017-06-13T13:05:07.477Z,29.80
2017-06-13T13:07:35.872Z,29.80
2017-06-13T13:10:04.108Z,29.80
2017-06-13T13:12:33.141Z,30.50
2017-06-13T13:15:02.381Z,30.50
2017-06-13T13:17:30.960Z,30.50
2017-06-13T13:19:59.455Z,31.00
2017-06-13T13:22:28.546Z,32.70
2017-06-13T13:24:58.003Z,32.40
2017-06-13T13:27:26.230Z,32.50
2017-06-13T13:29:55.362Z,32.30
2017-06-13T13:32:23.644Z,32.20
2017-06-13T13:34:51.961Z,32.40
2017-06-13T13:37:20.189Z,32.70
2017-06-13T13:39:48.451Z,32.40
2017-06-13T13:42:16.805Z,32.10
2017-06-13T13:44:46.037Z,31.50
2017-06-13T13:47:14.365Z,31.50
2017-06-13T13:49:42.604Z,33.70
2017-06-13T13:52:10.882Z,35.00
2017-06-13T13:54:39.137Z,35.10
2017-06-13T13:57:07.408Z,35.10
2017-06-13T13:59:35.665Z,35.40
2017-06-13T14:02:03.917Z,35.80
2017-06-13T14:04:32.298Z,35.90
2017-06-13T14:07:00.579Z,38.20
2017-06-13T14:09:29.749Z,35.90
2017-06-13T14:11:57.981Z,35.90
2017-06-13T14:14:26.248Z,36.50
2017-06-13T14:16:54.562Z,37.70
2017-06-13T14:19:22.936Z,37.80
2017-06-13T14:21:51.213Z,37.10
2017-06-13T14:24:19.553Z,37.90
2017-06-13T14:26:47.877Z,37.80
2017-06-13T14:29:16.116Z,37.50
2017-06-13T14:31:44.357Z,37.60
2017-06-13T14:34:13.389Z,38.60
2017-06-13T14:36:41.655Z,38.70
2017-06-13T14:39:09.904Z,37.20
2017-06-13T14:41:38.930Z,36.50
2017-06-13T14:44:07.219Z,36.40
2017-06-13T14:46:35.498Z,38.10
2017-06-13T14:49:03.825Z,36.90
2017-06-13T14:51:32.865Z,35.10
2017-06-13T14:54:01.235Z,35.10
2017-06-13T14:56:29.740Z,35.10
2017-06-13T14:58:58.002Z,35.30
2017-06-13T15:01:26.277Z,36.30
2017-06-13T15:03:54.519Z,37.30
2017-06-13T15:06:23.645Z,36.10
2017-06-13T15:08:51.882Z,36.00
2017-06-13T15:11:21.005Z,35.80
2017-06-13T15:13:49.289Z,35.70
2017-06-13T15:16:17.568Z,36.00
2017-06-13T15:18:45.823Z,35.90
2017-06-13T15:21:14.077Z,36.10
2017-06-13T15:23:42.389Z,36.90
2017-06-13T15:26:10.661Z,37.70
2017-06-13T15:28:38.897Z,36.30
2017-06-13T15:31:07.313Z,35.90
2017-06-13T15:33:35.663Z,36.10
2017-06-13T15:36:03.907Z,35.90
2017-06-13T15:38:32.159Z,36.20
2017-06-13T15:41:00.395Z,36.50
2017-06-13T15:43:28.651Z,36.70
2017-06-13T15:45:57.662Z,38.00
2017-06-13T15:48:25.957Z,37.30
2017-06-13T15:50:54.256Z,37.40
2017-06-13T15:53:22.564Z,37.00
2017-06-13T15:55:50.893Z,36.50
2017-06-13T15:58:19.151Z,36.50
2017-06-13T16:00:47.429Z,37.20
2017-06-13T16:03:15.674Z,38.10
2017-06-13T16:05:45.066Z,37.10
2017-06-13T16:08:13.305Z,37.10
2017-06-13T16:10:41.608Z,37.30
2017-06-13T16:13:09.869Z,37.10
2017-06-13T16:15:38.150Z,36.30
2017-06-13T16:18:06.399Z,36.50
2017-06-13T16:20:34.659Z,37.20
2017-06-13T16:23:02.913Z,37.50
2017-06-13T16:25:31.267Z,37.30
2017-06-13T16:27:59.627Z,36.90
2017-06-13T16:30:27.897Z,37.70
2017-06-13T16:32:56.149Z,37.10
2017-06-13T16:35:24.479Z,36.10
2017-06-13T16:37:52.810Z,36.70
2017-06-13T16:40:21.057Z,37.00
2017-06-13T16:42:49.445Z,37.30
2017-06-13T16:45:17.764Z,37.70
2017-06-13T16:47:46.022Z,37.70
2017-06-13T16:50:14.451Z,38.10
2017-06-13T16:52:42.699Z,38.70
2017-06-13T16:55:10.953Z,38.20
2017-06-13T16:57:39.201Z,38.00
2017-06-13T17:00:07.538Z,38.70
2017-06-13T17:02:35.774Z,38.10
2017-06-13T17:05:04.025Z,38.10
2017-06-13T17:07:32.286Z,38.40
2017-06-13T17:10:01.414Z,37.60
2017-06-13T17:12:29.745Z,37.50
2017-06-13T17:14:58.112Z,37.90
2017-06-13T17:17:26.553Z,38.40
2017-06-13T17:19:54.789Z,38.20
2017-06-13T17:22:23.817Z,38.80
2017-06-13T17:24:52.067Z,38.60
2017-06-13T17:27:20.330Z,38.50
2017-06-13T17:29:48.597Z,38.60
2017-06-13T17:32:17.617Z,38.80
2017-06-13T17:34:45.865Z,38.80
2017-06-13T17:37:14.869Z,38.10
2017-06-13T17:39:43.133Z,38.00
2017-06-13T17:42:12.142Z,38.90
2017-06-13T17:44:40.463Z,38.90
2017-06-13T17:47:08.706Z,38.60
2017-06-13T17:49:36.938Z,38.60
2017-06-13T17:52:05.222Z,38.70
2017-06-13T17:54:34.226Z,38.50
2017-06-13T17:57:03.237Z,38.90
2017-06-13T17:59:31.537Z,38.80
2017-06-13T18:01:59.771Z,38.70
2017-06-13T18:04:28.045Z,39.10
2017-06-13T18:06:56.399Z,38.80
2017-06-13T18:09:24.646Z,38.90
2017-06-13T18:11:53.036Z,38.80
2017-06-13T18:14:21.271Z,38.60
2017-06-13T18:16:49.613Z,39.10
2017-06-13T18:19:17.848Z,39.40
2017-06-13T18:21:46.175Z,39.40
2017-06-13T18:24:14.416Z,39.30
2017-06-13T18:26:42.649Z,39.50
2017-06-13T18:29:10.900Z,39.80
2017-06-13T18:31:39.159Z,40.10
2017-06-13T18:34:07.404Z,40.10
2017-06-13T18:36:35.721Z,40.10
2017-06-13T18:39:03.976Z,40.60
2017-06-13T18:41:32.248Z,40.70
2017-06-13T18:44:00.512Z,41.60
2017-06-13T18:46:28.773Z,41.80
2017-06-13T18:48:57.046Z,42.10
2017-06-13T18:51:25.375Z,42.60
2017-06-13T18:53:53.634Z,42.70
2017-06-13T18:56:21.870Z,43.00
2017-06-13T18:58:50.113Z,43.50
2017-06-13T19:01:19.170Z,43.40
2017-06-13T19:03:47.518Z,43.40
2017-06-13T19:06:15.848Z,44.30
2017-06-13T19:08:44.880Z,43.50
2017-06-13T19:11:14.231Z,43.90
2017-06-13T19:13:43.338Z,44.00
2017-06-13T19:16:12.366Z,44.80
2017-06-13T19:18:40.730Z,44.10
2017-06-13T19:21:09.086Z,44.10
2017-06-13T19:23:37.331Z,44.00
2017-06-13T19:26:05.573Z,43.70
2017-06-13T19:28:33.810Z,43.60
2017-06-13T19:31:02.950Z,43.80
2017-06-13T19:33:31.257Z,43.20
2017-06-13T19:35:59.655Z,43.20
2017-06-13T19:38:27.913Z,43.70
2017-06-13T19:40:56.153Z,43.20
2017-06-13T19:43:24.538Z,43.10
2017-06-13T19:45:52.806Z,43.00
2017-06-13T19:48:21.045Z,43.30
2017-06-13T19:50:50.097Z,43.20
2017-06-13T19:53:18.440Z,43.20
2017-06-13T19:55:46.681Z,43.10
2017-06-13T19:58:14.915Z,43.90
2017-06-13T20:00:43.172Z,43.60
2017-06-13T20:03:11.507Z,43.90
2017-06-13T20:05:39.740Z,43.90
2017-06-13T20:08:08.030Z,44.00
2017-06-13T20:10:36.296Z,44.10
2017-06-13T20:13:04.537Z,44.00
2017-06-13T20:15:32.814Z,44.10
2017-06-13T20:18:01.233Z,44.40
2017-06-13T20:20:29.530Z,44.60
2017-06-13T20:23:03.511Z,44.70
2017-06-13T20:25:31.754Z,44.70
2017-06-13T20:28:14.922Z,44.80
2017-06-13T20:30:43.157Z,44.90
2017-06-13T20:33:11.412Z,45.00
2017-06-13T20:35:40.446Z,45.30
2017-06-13T20:38:08.703Z,45.30
2017-06-13T20:40:36.985Z,45.40
2017-06-13T20:43:05.375Z,45.60
2017-06-13T20:45:33.692Z,45.80
2017-06-13T20:48:02.760Z,45.90
2017-06-13T20:50:31.305Z,45.80
2017-06-13T20:52:59.538Z,46.40
2017-06-13T20:55:27.939Z,46.20
2017-06-13T20:57:56.357Z,46.20
2017-06-13T21:00:24.593Z,46.50
2017-06-13T21:02:53.591Z,46.90
2017-06-13T21:05:21.886Z,46.90
2017-06-13T21:07:50.358Z,47.30
2017-06-13T21:10:18.664Z,47.40
2017-06-13T21:12:47.261Z,47.70
2017-06-13T21:15:15.480Z,47.70
2017-06-13T21:17:43.817Z,47.80
2017-06-13T21:20:12.089Z,48.20
2017-06-13T21:22:40.321Z,48.40
2017-06-13T21:25:08.726Z,48.70
2017-06-13T21:27:36.993Z,48.70
2017-06-13T21:30:05.246Z,49.00
2017-06-13T21:32:33.482Z,49.40
2017-06-13T21:35:01.797Z,49.60
2017-06-13T21:37:30.139Z,49.80
2017-06-13T21:39:58.353Z,49.40
2017-06-13T21:42:26.695Z,49.60
2017-06-13T21:44:55.012Z,49.80
2017-06-13T21:47:23.257Z,49.90
2017-06-13T21:49:52.294Z,50.30
2017-06-13T21:52:20.541Z,50.30
2017-06-13T21:54:48.785Z,50.60
2017-06-13T21:57:17.065Z,50.70
2017-06-13T21:59:45.302Z,50.80
2017-06-13T22:02:13.608Z,50.70
2017-06-13T22:04:41.843Z,50.90
2017-06-13T22:07:10.119Z,51.00
2017-06-13T22:09:38.384Z,51.10
2017-06-13T22:12:06.769Z,51.40
2017-06-13T22:14:35.026Z,51.40
2017-06-13T22:17:03.247Z,51.30
2017-06-13T22:19:31.600Z,51.60
2017-06-13T22:21:59.841Z,51.70
2017-06-13T22:24:28.842Z,52.10
2017-06-13T22:26:57.168Z,52.00
2017-06-13T22:29:25.520Z,51.90
2017-06-13T22:31:53.791Z,52.00
2017-06-13T22:34:22.168Z,52.10
2017-06-13T22:36:50.409Z,52.20
2017-06-13T22:39:19.498Z,52.40
2017-06-13T22:41:47.765Z,52.30
2017-06-13T22:44:16.105Z,52.30
2017-06-13T22:46:44.356Z,52.00
2017-06-13T22:49:12.645Z,52.00
2017-06-13T22:51:40.964Z,52.20
2017-06-13T22:54:09.340Z,52.10
2017-06-13T22:56:38.381Z,52.80
2017-06-13T22:59:06.673Z,52.40
2017-06-13T23:01:34.901Z,52.50
2017-06-13T23:04:03.997Z,52.80
2017-06-13T23:06:33.001Z,52.90
2017-06-13T23:09:01.353Z,52.80
2017-06-13T23:11:29.749Z,52.70
2017-06-13T23:13:58.754Z,52.80
2017-06-13T23:16:27.129Z,52.70
2017-06-13T23:18:55.403Z,52.70
2017-06-13T23:21:23.868Z,52.80
2017-06-13T23:23:52.085Z,52.60
2017-06-13T23:26:20.464Z,53.20
2017-06-13T23:28:48.709Z,53.50
2017-06-13T23:31:16.955Z,53.40
2017-06-13T23:33:45.242Z,53.80
2017-06-13T23:36:13.480Z,53.70
2017-06-13T23:38:41.717Z,53.60
2017-06-13T23:41:10.074Z,54.00
2017-06-13T23:43:39.134Z,53.90
2017-06-13T23:46:07.407Z,53.90
2017-06-13T23:48:35.673Z,53.80
2017-06-13T23:51:03.956Z,53.70
2017-06-13T23:53:32.232Z,54.00
2017-06-13T23:56:00.510Z,54.10
2017-06-13T23:58:28.761Z,54.10
